createdAt,value
2022-10-13T00:02:44.603Z,0.00
2022-10-13T00:12:44.912Z,0.00
2022-10-13T00:22:44.951Z,0.00
2022-10-13T00:32:45.269Z,0.00
2022-10-13T00:42:45.289Z,0.00
2022-10-13T00:52:45.635Z,0.00
2022-10-13T01:02:45.670Z,0.00
2022-10-13T01:12:45.966Z,0.00
2022-10-13T01:22:45.999Z,0.00
2022-10-13T01:32:46.315Z,0.00
2022-10-13T01:42:46.337Z,0.00
2022-10-13T01:52:46.684Z,0.00
2022-10-13T02:02:46.711Z,0.00
2022-10-13T02:12:47.040Z,0.00
2022-10-13T02:22:47.059Z,0.00
2022-10-13T02:32:47.372Z,0.00
2022-10-13T02:42:47.386Z,0.00
2022-10-13T02:52:47.716Z,0.00
2022-10-13T03:02:47.734Z,0.00
2022-10-13T03:12:48.063Z,0.00
2022-10-13T03:22:49.916Z,0.00
2022-10-13T03:32:48.311Z,0.00
2022-10-13T03:42:48.341Z,0.00
2022-10-13T03:52:48.664Z,0.00
2022-10-13T04:02:48.693Z,0.00
2022-10-13T04:12:49.015Z,0.00
2022-10-13T04:22:49.037Z,0.00
2022-10-13T04:32:49.370Z,0.00
2022-10-13T04:42:49.387Z,0.00
2022-10-13T04:52:49.722Z,0.00
2022-10-13T05:02:49.769Z,0.00
2022-10-13T05:12:50.060Z,0.00
2022-10-13T05:22:50.088Z,4.00
2022-10-13T05:32:53.851Z,12.00
2022-10-13T05:42:50.517Z,28.00
2022-10-13T05:52:50.764Z,48.00
2022-10-13T06:02:50.995Z,80.00
2022-10-13T06:12:51.332Z,112.00
2022-10-13T06:22:51.440Z,168.00
2022-10-13T06:32:51.768Z,228.00
2022-10-13T06:42:51.586Z,328.00
2022-10-13T06:52:51.914Z,624.00
2022-10-13T07:02:51.950Z,480.00
2022-10-13T07:12:52.264Z,788.00
2022-10-13T07:22:52.296Z,544.00
2022-10-13T07:32:52.656Z,828.00
2022-10-13T07:42:52.686Z,1112.00
2022-10-13T07:52:52.967Z,1484.00
2022-10-13T08:02:52.988Z,504.00
2022-10-13T08:12:53.318Z,1380.00
2022-10-13T08:22:53.360Z,2220.00
2022-10-13T08:32:53.671Z,2408.00
2022-10-13T08:42:58.080Z,1380.00
2022-10-13T08:52:54.956Z,1604.00
2022-10-13T09:02:54.294Z,1280.00
2022-10-13T09:12:54.316Z,1024.00
2022-10-13T09:22:54.641Z,1012.00
2022-10-13T09:32:54.657Z,1072.00
2022-10-13T09:42:54.995Z,1516.00
2022-10-13T09:52:55.047Z,1172.00
2022-10-13T10:02:55.369Z,1332.00
2022-10-13T10:12:55.449Z,1480.00
2022-10-13T10:22:55.693Z,1720.00
2022-10-13T10:32:55.714Z,1232.00
2022-10-13T10:42:56.036Z,1100.00
2022-10-13T10:52:56.063Z,1028.00
2022-10-13T11:02:56.395Z,1000.00
2022-10-13T11:12:56.428Z,1284.00
2022-10-13T11:22:56.735Z,1324.00
2022-10-13T11:32:56.755Z,1216.00
2022-10-13T11:42:59.267Z,1332.00
2022-10-13T11:52:57.086Z,3000.00
2022-10-13T12:02:57.370Z,3368.00
2022-10-13T12:12:57.415Z,1464.00
2022-10-13T12:22:57.686Z,2448.00
2022-10-13T12:32:57.725Z,2568.00
2022-10-13T12:42:58.134Z,3532.00
2022-10-13T12:52:58.170Z,1728.00
2022-10-13T13:02:59.589Z,1304.00
2022-10-13T13:12:58.615Z,780.00
2022-10-13T13:22:58.949Z,624.00
2022-10-13T13:32:58.982Z,672.00
2022-10-13T13:42:59.311Z,988.00
2022-10-13T13:52:59.330Z,2000.00
2022-10-13T14:02:59.697Z,1208.00
2022-10-13T14:12:59.720Z,936.00
2022-10-13T14:23:00.081Z,2388.00
2022-10-13T14:33:00.090Z,440.00
2022-10-13T14:43:00.560Z,324.00
2022-10-13T14:53:00.571Z,344.00
2022-10-13T15:03:02.950Z,344.00
2022-10-13T15:13:00.984Z,260.00
2022-10-13T15:23:01.241Z,188.00
2022-10-13T15:33:01.470Z,144.00
2022-10-13T15:43:01.800Z,120.00
2022-10-13T15:53:01.894Z,92.00
2022-10-13T16:03:02.051Z,52.00
2022-10-13T16:13:02.075Z,36.00
2022-10-13T16:23:02.392Z,16.00
2022-10-13T16:33:02.411Z,8.00
2022-10-13T16:43:02.743Z,4.00
2022-10-13T16:53:02.770Z,0.00
2022-10-13T17:03:03.099Z,0.00
2022-10-13T17:13:03.118Z,0.00
2022-10-13T17:23:03.681Z,0.00
2022-10-13T17:33:04.679Z,0.00
2022-10-13T17:43:03.917Z,0.00
2022-10-13T17:53:04.859Z,0.00
2022-10-13T18:03:04.469Z,0.00
2022-10-13T18:13:06.066Z,0.00
2022-10-13T18:23:05.454Z,0.00
2022-10-13T18:33:05.104Z,0.00
2022-10-13T18:43:05.177Z,0.00
2022-10-13T18:53:05.071Z,0.00
2022-10-13T19:03:05.678Z,0.00
2022-10-13T19:13:06.184Z,0.00
2022-10-13T19:23:05.817Z,0.00
2022-10-13T19:33:05.965Z,0.00
2022-10-13T19:43:06.174Z,0.00
2022-10-13T19:53:06.313Z,0.00
2022-10-13T20:03:06.500Z,0.00
2022-10-13T20:13:06.391Z,0.00
2022-10-13T20:23:06.709Z,0.00
2022-10-13T20:33:06.971Z,0.00
2022-10-13T20:43:06.839Z,0.00
2022-10-13T20:53:07.066Z,0.00
2022-10-13T21:03:07.400Z,0.00
2022-10-13T21:13:07.426Z,0.00
2022-10-13T21:23:07.748Z,0.00
2022-10-13T21:33:07.921Z,0.00
2022-10-13T21:43:07.998Z,0.00
2022-10-13T21:53:08.024Z,0.00
2022-10-13T22:03:08.350Z,0.00
2022-10-13T22:13:08.393Z,0.00
2022-10-13T22:23:08.691Z,0.00
2022-10-13T22:33:08.735Z,0.00
2022-10-13T22:43:09.041Z,0.00
2022-10-13T22:53:09.057Z,0.00
2022-10-13T23:03:09.439Z,0.00
2022-10-13T23:13:09.429Z,0.00
2022-10-13T23:23:09.742Z,0.00
2022-10-13T23:33:09.766Z,0.00
2022-10-13T23:43:10.104Z,0.00
2022-10-13T23:53:10.135Z,0.00
